Time;durP1;ratioP1;P1;durP2;ratioP2;P2;SDS_P1;SDS_P2;PMS_P1;PMS_P2;Temp;Humidity;BMP_temperature;BMP_pressure;BME280_temperature;BME280_humidity;BME280_pressure;Samples;Min_cycle;Max_cycle;Signal;HPM_P1;HPM_P2
2022/10/08 12:48:40;;;;;;;;;;;;;;;;;;4798924;27;8317847;-57
2022/10/08 12:51:13;;;;;;;;;;;;;;;;;;5085370;28;3240;-57
2022/10/08 12:53:42;;;;;;;;;;;;;;;;;;5102813;28;3153;-57
2022/10/08 12:56:07;;;;;;;;;;;;;;;;;;5101002;28;1384;-60
2022/10/08 12:58:34;;;;;;;;;;;;;;;;;;5079019;28;3314;-57
2022/10/08 13:01:00;;;;;;;;;;;;;;;;;;5104412;28;2699;-57
2022/10/08 13:03:25;;;;;;;;;;;;;;;;;;5099616;28;1479;-58
2022/10/08 13:06:49;;;;;;;;;;;;;;;;;;4716860;27;8326094;-68
2022/10/08 13:09:28;;;;;;;;;;;;;;;;;;4999953;28;3358;-66
2022/10/08 13:11:53;;;;;;;;;;;;;;;;;;4981550;28;11211;-67
2022/10/08 13:14:25;;;;;;;;;;;;;;;;;;4994786;28;10757;-66
2022/10/08 13:16:51;;;;;;;;;;;;;;;;;;5001543;28;3029;-68
2022/10/08 13:19:16;;;;;;;;;;;;;;;;;;4991030;28;6544;-64
2022/10/08 13:21:51;;;;;;;;;;;;;;;;;;4996455;28;5255;-63
2022/10/08 13:24:17;;;;;;;;;;;;;;;;;;4999431;28;5154;-64
2022/10/08 13:26:43;;;;;;;;;;;;;;;;;;4998373;28;5121;-65
2022/10/08 13:29:20;;;;;;;;;;;;;;;;;;5001448;28;5386;-67
2022/10/08 13:31:56;;;;;;;;;;;;;;;;;;5000021;28;9691;-71
2022/10/08 13:34:22;;;;;;;;;;;;;;;;;;5019538;28;4642;-67
2022/10/08 13:36:48;;;;;;;;;;;;;;;;;;5017707;28;5144;-67
2022/10/08 13:39:24;;;;;;;;;;;;;;;;;;4998095;28;4495;-63
2022/10/08 13:41:53;;;;;;;;;;;;;;;;;;5019340;28;3044;-65
2022/10/08 13:44:18;;;;;;;;;;;;;;;;;;5012463;28;4990;-63
2022/10/08 13:46:44;;;;;;;;;;;;;;;;;;5000274;28;4485;-63
2022/10/08 13:49:20;;;;;;;;;;;;;;;;;;4998228;28;4537;-65
2022/10/08 13:51:45;;;;;;;;;;;;;;;;;;5001403;28;5091;-61
2022/10/08 13:58:46;;;;;;;;;;;;;;;;;;4766817;27;8287835;-67
2022/10/08 14:01:12;;;;;;;;;;;;;;;;;;5061009;28;4518;-66
2022/10/08 14:03:37;;;;;;;;;;;;;;;;;;5057285;28;5499;-67
2022/10/08 14:06:02;;;;;;;;;;;;;;;;;;5053976;28;2852;-65
2022/10/08 14:08:27;;;;;;;;;;;;;;;;;;5056655;28;5043;-62
2022/10/08 14:10:56;;;;;;;;;;;;;;;;;;5052759;28;5040;-65
2022/10/08 14:13:21;;;;;;;;;;;;;;;;;;5049291;28;5089;-66
2022/10/08 14:15:47;;;;;;;;;;;;;;;;;;5059986;28;4768;-65
2022/10/08 14:18:12;;;;;;;;;;;;;;;;;;5057176;28;4911;-66
2022/10/08 14:20:38;;;;;;;;;;;;;;;;;;5048786;28;2817;-65
2022/10/08 14:23:03;;;;;;;;;;;;;;;;;;5057380;28;5427;-73
2022/10/08 14:25:29;;;;;;;;;;;;;;;;;;5055430;28;5031;-69
2022/10/08 14:27:55;;;;;;;;;;;;;;;;;;5056261;28;5379;-68
2022/10/08 14:30:20;;;;;;;;;;;;;;;;;;5035387;28;5132;-68
2022/10/08 14:32:46;;;;;;;;;;;;;;;;;;5055910;28;2939;-69
2022/10/08 14:35:11;;;;;;;;;;;;;;;;;;5051105;28;5029;-68
2022/10/08 14:37:36;;;;;;;;;;;;;;;;;;5052980;28;4681;-67
2022/10/08 14:40:05;;;;;;;;;;;;;;;;;;5059859;28;5164;-67
2022/10/08 14:42:30;;;;;;;;;;;;;;;;;;5062913;28;5237;-67
2022/10/08 14:44:55;;;;;;;;;;;;;;;;;;5054657;28;1042;-66
2022/10/08 14:47:21;;;;;;;;;;;;;;;;;;5054775;28;5016;-67
2022/10/08 14:49:46;;;;;;;;;;;;;;;;;;5053160;28;5187;-67
2022/10/08 14:52:11;;;;;;;;;;;;;;;;;;5056648;28;4495;-67
2022/10/08 14:54:36;;;;;;;;;;;;;;;;;;5057963;28;4462;-67
2022/10/08 14:57:02;;;;;;;;;;;;;;;;;;5050921;28;1946;-67
2022/10/08 14:59:27;;;;;;;;;;;;;;;;;;5048462;28;4948;-67
2022/10/08 15:01:52;;;;;;;;;;;;;;;;;;5050319;28;4502;-67
2022/10/08 15:04:17;;;;;;;;;;;;;;;;;;5057726;28;4698;-67
2022/10/08 15:06:43;;;;;;;;;;;;;;;;;;5061095;28;5171;-67
2022/10/08 15:09:11;;;;;;;;;;;;;;;;;;5044558;28;2984;-66
2022/10/08 15:11:36;;;;;;;;;;;;;;;;;;5046653;28;5184;-67
2022/10/08 15:14:02;;;;;;;;;;;;;;;;;;5047733;28;4983;-66
2022/10/08 15:16:27;;;;;;;;;;;;;;;;;;5039670;28;5108;-68
2022/10/08 15:18:52;;;;;;;;;;;;;;;;;;5045139;28;5034;-67
2022/10/08 15:21:17;;;;;;;;;;;;;;;;;;5043234;28;5098;-66
2022/10/08 15:23:43;;;;;;;;;;;;;;;;;;5038037;28;2754;-67
2022/10/08 15:26:09;;;;;;;;;;;;;;;;;;5044716;28;5052;-66
2022/10/08 15:28:35;;;;;;;;;;;;;;;;;;5029559;28;4955;-67
2022/10/08 15:31:03;;;;;;;;;;;;;;;;;;5033678;28;4717;-67
2022/10/08 15:33:28;;;;;;;;;;;;;;;;;;5048868;28;5504;-67
2022/10/08 15:35:54;;;;;;;;;;;;;;;;;;5038334;28;2373;-67
2022/10/08 15:38:19;;;;;;;;;;;;;;;;;;5038075;28;4444;-67
2022/10/08 15:40:44;;;;;;;;;;;;;;;;;;5043005;28;5173;-67
2022/10/08 15:43:09;;;;;;;;;;;;;;;;;;5047267;28;5082;-67
2022/10/08 15:45:41;;;;;;;;;;;;;;;;;;5040168;28;4697;-67
2022/10/08 15:48:10;;;;;;;;;;;;;;;;;;5047165;28;1156;-67
2022/10/08 15:50:35;;;;;;;;;;;;;;;;;;5039312;28;4606;-67
2022/10/08 15:53:00;;;;;;;;;;;;;;;;;;5042969;28;4892;-67
2022/10/08 15:55:26;;;;;;;;;;;;;;;;;;5041484;28;5046;-67
2022/10/08 15:57:51;;;;;;;;;;;;;;;;;;5046598;28;5005;-67
2022/10/08 16:00:16;;;;;;;;;;;;;;;;;;5039992;28;4722;-67
2022/10/08 16:02:41;;;;;;;;;;;;;;;;;;5027250;28;2992;-67
2022/10/08 16:05:07;;;;;;;;;;;;;;;;;;5028703;28;4897;-67
2022/10/08 16:07:32;;;;;;;;;;;;;;;;;;5023659;28;5725;-67
2022/10/08 16:09:57;;;;;;;;;;;;;;;;;;5025638;28;4983;-67
2022/10/08 16:12:23;;;;;;;;;;;;;;;;;;5026745;28;5029;-67
2022/10/08 16:14:48;;;;;;;;;;;;;;;;;;5012825;28;1071;-67
2022/10/08 16:17:13;;;;;;;;;;;;;;;;;;5026697;28;5054;-67
2022/10/08 16:19:38;;;;;;;;;;;;;;;;;;5020689;28;4612;-67
2022/10/08 16:22:04;;;;;;;;;;;;;;;;;;5027616;28;5001;-67
2022/10/08 16:24:29;;;;;;;;;;;;;;;;;;5025300;28;4909;-67
2022/10/08 16:26:54;;;;;;;;;;;;;;;;;;5029593;28;4826;-67
2022/10/08 16:29:20;;;;;;;;;;;;;;;;;;5029448;28;5004;-67
2022/10/08 16:31:45;;;;;;;;;;;;;;;;;;5025954;28;5226;-67
2022/10/08 16:34:11;;;;;;;;;;;;;;;;;;5022334;28;4991;-67
2022/10/08 16:36:38;;;;;;;;;;;;;;;;;;5022159;28;4885;-67
2022/10/08 16:39:03;;;;;;;;;;;;;;;;;;5021754;28;3106;-66
2022/10/08 16:41:29;;;;;;;;;;;;;;;;;;5021303;28;4974;-67
2022/10/08 16:43:55;;;;;;;;;;;;;;;;;;5014691;28;5162;-66
2022/10/08 16:46:21;;;;;;;;;;;;;;;;;;5020592;28;5123;-66
2022/10/08 16:48:56;;;;;;;;;;;;;;;;;;5011042;28;5031;-66
2022/10/08 16:51:22;;;;;;;;;;;;;;;;;;5022806;28;5133;-66
2022/10/08 16:53:51;;;;;;;;;;;;;;;;;;5022730;28;1214;-66
2022/10/08 16:56:16;;;;;;;;;;;;;;;;;;5033000;28;5280;-66
2022/10/08 16:58:42;;;;;;;;;;;;;;;;;;5040831;28;5009;-66
2022/10/08 17:01:07;;;;;;;;;;;;;;;;;;5027488;28;5424;-66
2022/10/08 17:03:32;;;;;;;;;;;;;;;;;;5028666;28;4508;-66
2022/10/08 17:05:58;;;;;;;;;;;;;;;;;;5026301;28;3115;-66
2022/10/08 17:08:23;;;;;;;;;;;;;;;;;;5020898;28;4882;-67
2022/10/08 17:10:48;;;;;;;;;;;;;;;;;;5039920;28;5172;-67
2022/10/08 17:13:14;;;;;;;;;;;;;;;;;;5036677;28;5091;-66
2022/10/08 17:15:39;;;;;;;;;;;;;;;;;;5021752;28;5120;-66
2022/10/08 17:18:04;;;;;;;;;;;;;;;;;;5015487;28;2925;-66
2022/10/08 17:20:30;;;;;;;;;;;;;;;;;;5024724;28;4923;-67
2022/10/08 17:22:55;;;;;;;;;;;;;;;;;;5026847;28;5105;-65
2022/10/08 17:25:20;;;;;;;;;;;;;;;;;;5022628;28;4702;-66
2022/10/08 17:27:45;;;;;;;;;;;;;;;;;;5016383;28;5105;-67
2022/10/08 17:30:11;;;;;;;;;;;;;;;;;;5019648;28;5140;-66
2022/10/08 17:32:36;;;;;;;;;;;;;;;;;;5044086;28;3176;-66
2022/10/08 17:35:01;;;;;;;;;;;;;;;;;;5021391;28;5167;-65
2022/10/08 17:37:27;;;;;;;;;;;;;;;;;;5038466;28;5057;-65
2022/10/08 17:39:52;;;;;;;;;;;;;;;;;;5026615;28;5217;-65
2022/10/08 17:42:17;;;;;;;;;;;;;;;;;;5037927;28;4998;-65
2022/10/08 17:44:43;;;;;;;;;;;;;;;;;;5023926;28;3160;-65
2022/10/08 17:47:08;;;;;;;;;;;;;;;;;;5043464;28;5137;-66
2022/10/08 17:49:33;;;;;;;;;;;;;;;;;;5034438;28;5117;-68
2022/10/08 17:51:59;;;;;;;;;;;;;;;;;;5018927;28;5506;-66
2022/10/08 17:54:24;;;;;;;;;;;;;;;;;;5015346;28;5085;-66
2022/10/08 17:56:49;;;;;;;;;;;;;;;;;;5024673;28;3417;-66
2022/10/08 17:59:18;;;;;;;;;;;;;;;;;;5011463;28;4855;-66
2022/10/08 18:01:44;;;;;;;;;;;;;;;;;;5021603;28;5133;-67
2022/10/08 18:04:09;;;;;;;;;;;;;;;;;;5021175;28;4542;-66
2022/10/08 18:06:35;;;;;;;;;;;;;;;;;;5033108;28;5151;-66
2022/10/08 18:09:01;;;;;;;;;;;;;;;;;;5039415;28;3132;-67
2022/10/08 18:11:27;;;;;;;;;;;;;;;;;;5028448;28;4964;-65
2022/10/08 18:13:52;;;;;;;;;;;;;;;;;;5028034;28;4998;-66
2022/10/08 18:16:17;;;;;;;;;;;;;;;;;;5036300;28;5106;-65
2022/10/08 18:18:43;;;;;;;;;;;;;;;;;;5033298;28;4732;-66
2022/10/08 18:21:08;;;;;;;;;;;;;;;;;;5030663;28;3208;-65
2022/10/08 18:23:35;;;;;;;;;;;;;;;;;;5018432;28;4939;-65
2022/10/08 18:26:09;;;;;;;;;;;;;;;;;;5037180;28;4677;-65
2022/10/08 18:28:34;;;;;;;;;;;;;;;;;;5042447;28;5069;-65
2022/10/08 18:31:06;;;;;;;;;;;;;;;;;;5028970;28;5030;-64
2022/10/08 18:33:32;;;;;;;;;;;;;;;;;;5042385;28;5066;-64
2022/10/08 18:36:04;;;;;;;;;;;;;;;;;;5033271;28;3146;-67
2022/10/08 18:38:30;;;;;;;;;;;;;;;;;;5025411;28;5059;-64
2022/10/08 18:40:55;;;;;;;;;;;;;;;;;;5034536;28;5559;-65
2022/10/08 18:43:20;;;;;;;;;;;;;;;;;;5030124;28;5343;-64
2022/10/08 18:45:45;;;;;;;;;;;;;;;;;;5037186;28;5153;-64
2022/10/08 18:48:11;;;;;;;;;;;;;;;;;;5055457;28;5148;-64
2022/10/08 18:50:36;;;;;;;;;;;;;;;;;;5043014;28;2813;-65
2022/10/08 18:53:01;;;;;;;;;;;;;;;;;;5047009;28;5062;-65
2022/10/08 18:55:26;;;;;;;;;;;;;;;;;;5038114;28;4995;-64
2022/10/08 18:57:52;;;;;;;;;;;;;;;;;;5036167;28;5050;-65
2022/10/08 19:00:18;;;;;;;;;;;;;;;;;;5048280;28;4855;-64
2022/10/08 19:02:43;;;;;;;;;;;;;;;;;;5039836;28;3282;-71
2022/10/08 19:05:10;;;;;;;;;;;;;;;;;;5027886;28;4668;-65
2022/10/08 19:07:36;;;;;;;;;;;;;;;;;;5034353;28;5084;-65
2022/10/08 19:10:02;;;;;;;;;;;;;;;;;;5042083;28;5183;-65
2022/10/08 19:12:27;;;;;;;;;;;;;;;;;;5041393;28;5082;-65
2022/10/08 19:14:52;;;;;;;;;;;;;;;;;;5024153;28;2971;-65
2022/10/08 19:17:18;;;;;;;;;;;;;;;;;;5027478;28;5148;-65
2022/10/08 19:19:43;;;;;;;;;;;;;;;;;;5027785;28;4947;-65
2022/10/08 19:22:08;;;;;;;;;;;;;;;;;;5028678;28;5044;-64
2022/10/08 19:24:33;;;;;;;;;;;;;;;;;;5023490;28;5205;-64
2022/10/08 19:26:59;;;;;;;;;;;;;;;;;;5018012;28;4848;-64
2022/10/08 19:29:25;;;;;;;;;;;;;;;;;;5024364;28;4993;-63
2022/10/08 19:31:50;;;;;;;;;;;;;;;;;;5037774;28;5032;-64
2022/10/08 19:34:20;;;;;;;;;;;;;;;;;;5046179;28;5117;-64
2022/10/08 19:36:45;;;;;;;;;;;;;;;;;;5045844;28;4729;-63
2022/10/08 19:39:11;;;;;;;;;;;;;;;;;;5040547;28;4864;-64
2022/10/08 19:41:37;;;;;;;;;;;;;;;;;;5044569;28;2920;-64
2022/10/08 19:44:02;;;;;;;;;;;;;;;;;;5047404;28;4914;-63
2022/10/08 19:46:27;;;;;;;;;;;;;;;;;;5049501;28;5173;-64
2022/10/08 19:48:54;;;;;;;;;;;;;;;;;;5035344;28;5127;-64
2022/10/08 19:51:20;;;;;;;;;;;;;;;;;;5030491;28;5025;-64
2022/10/08 19:53:45;;;;;;;;;;;;;;;;;;5029364;28;2904;-64
2022/10/08 19:56:10;;;;;;;;;;;;;;;;;;5025921;28;4457;-63
2022/10/08 19:58:36;;;;;;;;;;;;;;;;;;5027054;28;4702;-63
2022/10/08 20:01:11;;;;;;;;;;;;;;;;;;5028872;28;5084;-63
2022/10/08 20:03:37;;;;;;;;;;;;;;;;;;5029016;28;4545;-63
2022/10/08 20:06:13;;;;;;;;;;;;;;;;;;5028547;28;2741;-64
2022/10/08 20:08:38;;;;;;;;;;;;;;;;;;5027400;28;4581;-64
2022/10/08 20:11:04;;;;;;;;;;;;;;;;;;5018339;28;5004;-63
2022/10/08 20:13:30;;;;;;;;;;;;;;;;;;5021387;28;4525;-63
2022/10/08 20:15:55;;;;;;;;;;;;;;;;;;5018987;28;5314;-65
2022/10/08 20:18:20;;;;;;;;;;;;;;;;;;5023294;28;5107;-64
2022/10/08 20:20:46;;;;;;;;;;;;;;;;;;5026974;28;1936;-64
2022/10/08 20:23:11;;;;;;;;;;;;;;;;;;5022117;28;5061;-64
2022/10/08 20:25:36;;;;;;;;;;;;;;;;;;5028644;28;5034;-64
2022/10/08 20:28:01;;;;;;;;;;;;;;;;;;5016852;28;5387;-65
2022/10/08 20:30:27;;;;;;;;;;;;;;;;;;5020740;28;5223;-64
2022/10/08 20:32:52;;;;;;;;;;;;;;;;;;5013237;28;3644;-66
2022/10/08 20:35:17;;;;;;;;;;;;;;;;;;5035109;28;5062;-63
2022/10/08 20:37:42;;;;;;;;;;;;;;;;;;5025287;28;5496;-63
2022/10/08 20:40:09;;;;;;;;;;;;;;;;;;5025702;28;4504;-66
2022/10/08 20:42:34;;;;;;;;;;;;;;;;;;5024794;28;4485;-66
2022/10/08 20:44:59;;;;;;;;;;;;;;;;;;5020030;28;1174;-65
2022/10/08 20:47:24;;;;;;;;;;;;;;;;;;5021068;28;4730;-65
2022/10/08 20:49:50;;;;;;;;;;;;;;;;;;5009579;28;4489;-63
2022/10/08 20:52:22;;;;;;;;;;;;;;;;;;5025561;28;5061;-64
2022/10/08 20:54:47;;;;;;;;;;;;;;;;;;5021767;28;5615;-66
2022/10/08 20:57:19;;;;;;;;;;;;;;;;;;5014238;28;4768;-67
2022/10/08 20:59:44;;;;;;;;;;;;;;;;;;5017222;28;3102;-66
2022/10/08 21:02:09;;;;;;;;;;;;;;;;;;5019046;28;4761;-67
2022/10/08 21:04:34;;;;;;;;;;;;;;;;;;5012760;28;5165;-66
2022/10/08 21:07:00;;;;;;;;;;;;;;;;;;5025095;28;5151;-63
2022/10/08 21:09:25;;;;;;;;;;;;;;;;;;5025164;28;4890;-67
2022/10/08 21:11:52;;;;;;;;;;;;;;;;;;5014076;28;1776;-66
2022/10/08 21:14:18;;;;;;;;;;;;;;;;;;5026904;28;4457;-67
2022/10/08 21:16:43;;;;;;;;;;;;;;;;;;5021591;28;5122;-63
2022/10/08 21:19:10;;;;;;;;;;;;;;;;;;5011097;28;4534;-63
2022/10/08 21:21:35;;;;;;;;;;;;;;;;;;5028179;28;5108;-63
2022/10/08 21:24:00;;;;;;;;;;;;;;;;;;5028823;28;3096;-63
2022/10/08 21:26:26;;;;;;;;;;;;;;;;;;5034981;28;4900;-63
2022/10/08 21:28:56;;;;;;;;;;;;;;;;;;5038619;28;5096;-62
2022/10/08 21:31:21;;;;;;;;;;;;;;;;;;5037322;28;5289;-61
2022/10/08 21:33:47;;;;;;;;;;;;;;;;;;5040171;28;5545;-61
2022/10/08 21:36:13;;;;;;;;;;;;;;;;;;5032535;28;5017;-61
2022/10/08 21:38:38;;;;;;;;;;;;;;;;;;5027273;28;1965;-61
2022/10/08 21:41:10;;;;;;;;;;;;;;;;;;5042831;28;5082;-61
2022/10/08 21:43:35;;;;;;;;;;;;;;;;;;5047254;28;4483;-60
2022/10/08 21:46:00;;;;;;;;;;;;;;;;;;5045621;28;4993;-61
2022/10/08 21:48:26;;;;;;;;;;;;;;;;;;5041929;28;5033;-61
2022/10/08 21:51:01;;;;;;;;;;;;;;;;;;5040708;28;1189;-61
2022/10/08 21:53:26;;;;;;;;;;;;;;;;;;5032159;28;4942;-61
2022/10/08 21:55:59;;;;;;;;;;;;;;;;;;5038607;28;5183;-61
2022/10/08 21:58:24;;;;;;;;;;;;;;;;;;5039136;28;5058;-61
2022/10/08 22:00:50;;;;;;;;;;;;;;;;;;5031485;28;5004;-61
2022/10/08 22:03:16;;;;;;;;;;;;;;;;;;5038264;28;5080;-61
2022/10/08 22:05:54;;;;;;;;;;;;;;;;;;5039378;28;1180;-61
2022/10/08 22:08:20;;;;;;;;;;;;;;;;;;5045219;28;4679;-62
2022/10/08 22:10:45;;;;;;;;;;;;;;;;;;5041304;28;5035;-61
2022/10/08 22:13:11;;;;;;;;;;;;;;;;;;5035896;28;5049;-62
2022/10/08 22:15:36;;;;;;;;;;;;;;;;;;5041975;28;4473;-61
2022/10/08 22:18:01;;;;;;;;;;;;;;;;;;5048352;28;2399;-61
2022/10/08 22:20:26;;;;;;;;;;;;;;;;;;5037037;28;4430;-61
2022/10/08 22:22:52;;;;;;;;;;;;;;;;;;5039465;28;4951;-61
2022/10/08 22:25:17;;;;;;;;;;;;;;;;;;5038409;28;5727;-61
2022/10/08 22:27:42;;;;;;;;;;;;;;;;;;5043517;28;5161;-61
2022/10/08 22:30:08;;;;;;;;;;;;;;;;;;5040438;28;1188;-60
2022/10/08 22:32:33;;;;;;;;;;;;;;;;;;5045152;28;4922;-60
2022/10/08 22:34:58;;;;;;;;;;;;;;;;;;5038809;28;4691;-61
2022/10/08 22:37:23;;;;;;;;;;;;;;;;;;5034506;28;4980;-61
2022/10/08 22:39:49;;;;;;;;;;;;;;;;;;5045742;28;4471;-60
2022/10/08 22:42:14;;;;;;;;;;;;;;;;;;5043246;28;4859;-60
2022/10/08 22:44:39;;;;;;;;;;;;;;;;;;5045896;28;1109;-61
2022/10/08 22:47:04;;;;;;;;;;;;;;;;;;5045654;28;5041;-60
2022/10/08 22:49:30;;;;;;;;;;;;;;;;;;5029302;28;4669;-61
2022/10/08 22:51:55;;;;;;;;;;;;;;;;;;5043490;28;5141;-61
2022/10/08 22:54:20;;;;;;;;;;;;;;;;;;5030757;28;5141;-60
2022/10/08 22:56:45;;;;;;;;;;;;;;;;;;5044023;28;1973;-61
2022/10/08 22:59:11;;;;;;;;;;;;;;;;;;5039364;28;5023;-60
2022/10/08 23:01:36;;;;;;;;;;;;;;;;;;5046781;28;5016;-61
2022/10/08 23:04:01;;;;;;;;;;;;;;;;;;5045228;28;5205;-60
2022/10/08 23:06:33;;;;;;;;;;;;;;;;;;5037927;28;5150;-60
2022/10/08 23:08:59;;;;;;;;;;;;;;;;;;5020929;28;1692;-61
2022/10/08 23:11:24;;;;;;;;;;;;;;;;;;5049493;28;4961;-60
2022/10/08 23:13:50;;;;;;;;;;;;;;;;;;5046359;28;4748;-60
2022/10/08 23:16:15;;;;;;;;;;;;;;;;;;5040564;28;5174;-60
2022/10/08 23:18:42;;;;;;;;;;;;;;;;;;5042482;28;4993;-60
2022/10/08 23:21:08;;;;;;;;;;;;;;;;;;5042189;28;1217;-60
2022/10/08 23:23:33;;;;;;;;;;;;;;;;;;5027851;28;4422;-60
2022/10/08 23:25:59;;;;;;;;;;;;;;;;;;5033211;28;5006;-60
2022/10/08 23:28:24;;;;;;;;;;;;;;;;;;5032522;28;4884;-60
2022/10/08 23:30:50;;;;;;;;;;;;;;;;;;5045675;28;4899;-62
2022/10/08 23:33:15;;;;;;;;;;;;;;;;;;5042774;28;5107;-61
2022/10/08 23:35:40;;;;;;;;;;;;;;;;;;5041312;28;1261;-62
2022/10/08 23:38:06;;;;;;;;;;;;;;;;;;5046717;28;4903;-61
2022/10/08 23:40:31;;;;;;;;;;;;;;;;;;5044663;28;5101;-61
2022/10/08 23:42:56;;;;;;;;;;;;;;;;;;5041470;28;4545;-61
2022/10/08 23:45:21;;;;;;;;;;;;;;;;;;5046650;28;5170;-61
2022/10/08 23:47:47;;;;;;;;;;;;;;;;;;5047213;28;1165;-62
2022/10/08 23:50:12;;;;;;;;;;;;;;;;;;5031826;28;5212;-62
2022/10/08 23:52:37;;;;;;;;;;;;;;;;;;5038763;28;4862;-61
2022/10/08 23:55:02;;;;;;;;;;;;;;;;;;5045282;28;5056;-62
2022/10/08 23:57:28;;;;;;;;;;;;;;;;;;5038207;28;5042;-61
2022/10/08 23:59:53;;;;;;;;;;;;;;;;;;5017603;28;3166;-62
